Time;durP1;ratioP1;P1;durP2;ratioP2;P2;SDS_P1;SDS_P2;PMS_P1;PMS_P2;Temp;Humidity;BMP_temperature;BMP_pressure;BME280_temperature;BME280_humidity;BME280_pressure;Samples;Min_cycle;Max_cycle;Signal;HPM_P1;HPM_P2
2021/10/22 00:00:37;;;;;;;8.32;2.15;;;;;;;;;;5093970;28;20646;-74
2021/10/22 00:03:06;;;;;;;16.15;4.10;;;;;;;;;;5093792;28;20287;-75
2021/10/22 00:05:33;;;;;;;11.75;2.88;;;;;;;;;;5093678;28;20203;-74
2021/10/22 00:08:01;;;;;;;8.32;2.45;;;;;;;;;;5093219;28;20228;-74
2021/10/22 00:10:28;;;;;;;7.93;3.10;;;;;;;;;;5093515;28;20201;-74
2021/10/22 00:12:55;;;;;;;16.00;4.05;;;;;;;;;;5093165;28;20191;-75
2021/10/22 00:15:22;;;;;;;17.17;4.22;;;;;;;;;;5093942;28;20197;-75
2021/10/22 00:17:49;;;;;;;13.68;2.97;;;;;;;;;;5093220;28;20199;-75
2021/10/22 00:20:18;;;;;;;9.43;2.80;;;;;;;;;;5093504;28;20586;-74
2021/10/22 00:22:46;;;;;;;16.27;3.10;;;;;;;;;;5093194;28;20200;-73
2021/10/22 00:25:13;;;;;;;10.35;3.03;;;;;;;;;;5093435;28;20344;-74
2021/10/22 00:27:41;;;;;;;7.25;2.58;;;;;;;;;;5093366;28;20214;-74
2021/10/22 00:30:08;;;;;;;10.00;3.67;;;;;;;;;;5093388;28;20552;-73
2021/10/22 00:32:35;;;;;;;9.88;2.97;;;;;;;;;;5093318;28;20511;-73
2021/10/22 00:35:02;;;;;;;6.78;2.50;;;;;;;;;;5093506;28;20283;-75
2021/10/22 00:37:31;;;;;;;13.40;3.00;;;;;;;;;;5092936;28;20279;-74
2021/10/22 00:39:58;;;;;;;11.85;3.70;;;;;;;;;;5093183;28;20221;-74
2021/10/22 00:42:26;;;;;;;11.68;3.00;;;;;;;;;;5093264;28;20286;-76
2021/10/22 00:44:53;;;;;;;13.15;3.97;;;;;;;;;;5093203;28;20204;-74
2021/10/22 00:47:21;;;;;;;7.80;3.10;;;;;;;;;;5093219;28;20222;-75
2021/10/22 00:49:48;;;;;;;11.32;3.05;;;;;;;;;;5093258;28;20210;-74
2021/10/22 00:52:16;;;;;;;9.30;2.72;;;;;;;;;;5093197;28;20202;-74
2021/10/22 00:54:46;;;;;;;9.68;3.80;;;;;;;;;;5094208;28;20663;-75
2021/10/22 00:57:14;;;;;;;10.73;4.03;;;;;;;;;;5098603;28;20198;-74
2021/10/22 00:59:41;;;;;;;8.40;3.03;;;;;;;;;;5097844;28;20283;-75
2021/10/22 01:02:10;;;;;;;9.27;3.30;;;;;;;;;;5096790;28;20193;-74
2021/10/22 01:04:39;;;;;;;10.98;4.38;;;;;;;;;;5093486;28;20196;-74
2021/10/22 01:07:06;;;;;;;10.77;3.13;;;;;;;;;;5093377;28;20196;-74
2021/10/22 01:09:34;;;;;;;7.40;2.83;;;;;;;;;;5079475;28;20571;-75
2021/10/22 01:12:02;;;;;;;8.23;3.15;;;;;;;;;;5078197;28;20675;-75
2021/10/22 01:14:30;;;;;;;15.10;3.85;;;;;;;;;;5077318;28;20196;-75
2021/10/22 01:16:57;;;;;;;18.08;4.28;;;;;;;;;;5076677;28;20197;-75
2021/10/22 01:19:24;;;;;;;13.27;3.50;;;;;;;;;;5076771;28;20223;-72
2021/10/22 01:21:53;;;;;;;12.90;3.25;;;;;;;;;;5076470;28;20658;-74
2021/10/22 01:24:20;;;;;;;5.70;2.17;;;;;;;;;;5076708;28;20726;-74
2021/10/22 01:26:48;;;;;;;5.20;2.53;;;;;;;;;;5076791;28;20195;-74
2021/10/22 01:29:17;;;;;;;7.90;3.47;;;;;;;;;;5076614;28;20200;-74
2021/10/22 01:31:44;;;;;;;11.15;3.42;;;;;;;;;;5076667;28;20242;-75
2021/10/22 01:34:12;;;;;;;12.73;3.17;;;;;;;;;;5076421;28;20197;-74
2021/10/22 01:36:40;;;;;;;13.75;3.67;;;;;;;;;;5076385;28;20200;-74
2021/10/22 01:39:09;;;;;;;6.28;2.83;;;;;;;;;;5076827;28;20197;-75
2021/10/22 01:41:36;;;;;;;15.48;3.30;;;;;;;;;;5076309;28;20199;-74
2021/10/22 01:44:06;;;;;;;8.25;2.50;;;;;;;;;;5076370;28;20683;-74
2021/10/22 01:46:33;;;;;;;15.60;3.53;;;;;;;;;;5076705;28;20271;-75
2021/10/22 01:49:01;;;;;;;9.40;2.90;;;;;;;;;;5075843;28;20206;-74
2021/10/22 01:51:28;;;;;;;8.85;2.95;;;;;;;;;;5075810;28;20245;-74
2021/10/22 01:53:56;;;;;;;16.20;3.58;;;;;;;;;;5075766;28;20195;-74
2021/10/22 01:56:25;;;;;;;7.82;2.80;;;;;;;;;;5075706;28;20198;-75
2021/10/22 01:58:52;;;;;;;7.95;3.20;;;;;;;;;;5076751;28;20198;-75
2021/10/22 02:01:19;;;;;;;14.95;3.25;;;;;;;;;;5076740;28;20219;-75
2021/10/22 02:03:47;;;;;;;10.93;3.30;;;;;;;;;;5075587;28;20286;-75
2021/10/22 02:06:14;;;;;;;9.82;2.95;;;;;;;;;;5075781;28;20216;-76
2021/10/22 02:08:41;;;;;;;15.15;4.28;;;;;;;;;;5088740;28;20228;-74
2021/10/22 02:11:09;;;;;;;10.57;4.00;;;;;;;;;;5095997;28;20242;-74
2021/10/22 02:13:37;;;;;;;11.10;3.28;;;;;;;;;;5095915;28;20196;-75
2021/10/22 02:16:05;;;;;;;14.25;2.70;;;;;;;;;;5096186;28;20287;-77
2021/10/22 02:18:32;;;;;;;8.18;2.60;;;;;;;;;;5095394;28;20203;-77
2021/10/22 02:21:00;;;;;;;6.35;2.40;;;;;;;;;;5095410;28;20217;-75
2021/10/22 02:23:27;;;;;;;10.10;3.28;;;;;;;;;;5095737;28;20198;-75
2021/10/22 02:25:54;;;;;;;13.27;3.10;;;;;;;;;;5095723;28;20199;-76
2021/10/22 02:28:21;;;;;;;10.13;3.13;;;;;;;;;;5095650;28;20203;-76
2021/10/22 02:30:50;;;;;;;16.45;3.97;;;;;;;;;;5095648;28;20557;-75
2021/10/22 02:33:17;;;;;;;7.95;2.70;;;;;;;;;;5095583;28;20205;-75
2021/10/22 02:35:44;;;;;;;10.75;3.28;;;;;;;;;;5095138;28;20204;-75
2021/10/22 02:38:11;;;;;;;14.40;3.40;;;;;;;;;;5095862;28;20193;-74
2021/10/22 02:40:38;;;;;;;8.20;2.30;;;;;;;;;;5095503;28;20225;-74
2021/10/22 02:43:06;;;;;;;7.18;2.83;;;;;;;;;;5095043;28;20196;-77
2021/10/22 02:45:33;;;;;;;9.18;3.20;;;;;;;;;;5095554;28;20193;-74
2021/10/22 02:48:01;;;;;;;20.38;4.00;;;;;;;;;;5094941;28;20204;-76
2021/10/22 02:50:29;;;;;;;7.13;3.40;;;;;;;;;;5094932;28;20294;-75
2021/10/22 02:52:56;;;;;;;5.50;2.00;;;;;;;;;;5095217;28;20755;-75
2021/10/22 02:55:23;;;;;;;10.65;3.08;;;;;;;;;;5095587;28;20203;-74
2021/10/22 02:57:50;;;;;;;7.97;2.45;;;;;;;;;;5095052;28;20197;-74
2021/10/22 03:00:17;;;;;;;6.18;2.50;;;;;;;;;;5094916;28;20217;-74
2021/10/22 03:02:45;;;;;;;6.53;2.90;;;;;;;;;;5094674;28;20207;-74
2021/10/22 03:05:14;;;;;;;7.80;2.15;;;;;;;;;;5094953;28;20226;-75
2021/10/22 03:07:41;;;;;;;10.60;3.40;;;;;;;;;;5094687;28;20315;-74
2021/10/22 03:10:10;;;;;;;7.53;3.03;;;;;;;;;;5095398;28;20199;-74
2021/10/22 03:12:37;;;;;;;11.55;2.75;;;;;;;;;;5095294;28;20235;-74
2021/10/22 03:15:04;;;;;;;10.20;3.00;;;;;;;;;;5094446;28;20202;-74
2021/10/22 03:17:32;;;;;;;12.52;3.30;;;;;;;;;;5094645;28;20684;-74
2021/10/22 03:19:59;;;;;;;5.93;2.58;;;;;;;;;;5095115;28;20284;-75
2021/10/22 03:22:27;;;;;;;10.40;2.75;;;;;;;;;;5094295;28;20203;-75
2021/10/22 03:24:54;;;;;;;12.85;3.30;;;;;;;;;;5094509;28;20204;-75
2021/10/22 03:27:23;;;;;;;7.05;2.90;;;;;;;;;;5094227;28;20654;-74
2021/10/22 03:29:50;;;;;;;10.00;3.13;;;;;;;;;;5093559;28;20671;-75
2021/10/22 03:32:17;;;;;;;7.20;3.05;;;;;;;;;;5094695;28;20196;-74
2021/10/22 03:34:45;;;;;;;9.38;2.85;;;;;;;;;;5094367;28;20270;-75
2021/10/22 03:37:13;;;;;;;6.35;2.60;;;;;;;;;;5094344;28;20224;-74
2021/10/22 03:39:42;;;;;;;7.10;3.33;;;;;;;;;;5094322;28;20564;-74
2021/10/22 03:42:09;;;;;;;8.65;3.45;;;;;;;;;;5094210;28;20226;-75
2021/10/22 03:44:37;;;;;;;15.13;3.42;;;;;;;;;;5093938;28;20197;-74
2021/10/22 03:47:05;;;;;;;4.97;3.08;;;;;;;;;;5094129;28;20197;-74
2021/10/22 03:49:32;;;;;;;5.55;3.35;;;;;;;;;;5094171;28;20201;-74
2021/10/22 03:51:59;;;;;;;11.52;2.88;;;;;;;;;;5094048;28;20196;-74
2021/10/22 03:54:26;;;;;;;8.00;2.80;;;;;;;;;;5093792;28;20193;-74
2021/10/22 03:56:55;;;;;;;8.15;3.00;;;;;;;;;;5094038;28;20558;-74
2021/10/22 03:59:22;;;;;;;8.25;3.40;;;;;;;;;;5093992;28;20294;-74
2021/10/22 04:01:50;;;;;;;9.45;3.53;;;;;;;;;;5094623;28;20216;-74
2021/10/22 04:04:17;;;;;;;12.48;2.97;;;;;;;;;;5094774;28;20284;-75
2021/10/22 04:06:44;;;;;;;7.80;3.60;;;;;;;;;;5094218;28;20238;-75
2021/10/22 04:09:15;;;;;;;6.18;2.50;;;;;;;;;;5093557;28;20241;-74
2021/10/22 04:11:42;;;;;;;14.18;3.83;;;;;;;;;;5093961;28;20193;-71
2021/10/22 04:14:11;;;;;;;12.55;2.97;;;;;;;;;;5094131;28;20287;-74
2021/10/22 04:16:38;;;;;;;14.32;3.70;;;;;;;;;;5093500;28;20649;-76
2021/10/22 04:19:05;;;;;;;13.80;3.17;;;;;;;;;;5093782;28;20195;-75
2021/10/22 04:21:33;;;;;;;10.30;2.75;;;;;;;;;;5093660;28;20255;-75
2021/10/22 04:24:00;;;;;;;9.07;2.90;;;;;;;;;;5093379;28;20283;-74
2021/10/22 04:26:27;;;;;;;24.15;3.60;;;;;;;;;;5093708;28;20250;-77
2021/10/22 04:28:54;;;;;;;11.82;3.45;;;;;;;;;;5093447;28;20391;-77
2021/10/22 04:31:23;;;;;;;11.48;3.08;;;;;;;;;;5093346;28;20656;-77
2021/10/22 04:33:50;;;;;;;4.10;2.90;;;;;;;;;;5092819;28;20192;-78
2021/10/22 04:36:18;;;;;;;7.65;3.50;;;;;;;;;;5093111;28;20283;-76
2021/10/22 04:41:30;;;;;;;5.65;2.88;;;;;;;;;;5093825;28;20253;-77
2021/10/22 04:43:57;;;;;;;7.15;3.92;;;;;;;;;;5097256;28;20302;-76
2021/10/22 04:46:26;;;;;;;10.13;3.35;;;;;;;;;;5097575;28;20556;-77
2021/10/22 04:48:53;;;;;;;4.60;2.47;;;;;;;;;;5096741;28;20754;-76
2021/10/22 04:51:20;;;;;;;13.32;3.35;;;;;;;;;;5097110;28;20205;-76
2021/10/22 04:53:48;;;;;;;9.43;3.13;;;;;;;;;;5096241;28;20224;-77
2021/10/22 04:56:15;;;;;;;14.90;2.95;;;;;;;;;;5096407;28;20729;-77
2021/10/22 04:58:45;;;;;;;8.25;3.10;;;;;;;;;;5096816;28;20282;-76
2021/10/22 05:01:12;;;;;;;10.52;3.15;;;;;;;;;;5096375;28;20205;-76
2021/10/22 05:03:41;;;;;;;5.32;2.50;;;;;;;;;;5097247;28;20197;-77
2021/10/22 05:06:08;;;;;;;8.73;2.65;;;;;;;;;;5096746;28;20207;-78
2021/10/22 05:08:35;;;;;;;8.00;2.95;;;;;;;;;;5096329;28;20323;-80
2021/10/22 05:11:03;;;;;;;7.80;2.72;;;;;;;;;;5096748;28;20662;-76
2021/10/22 05:13:30;;;;;;;6.00;2.50;;;;;;;;;;5097022;28;20246;-78
2021/10/22 05:15:57;;;;;;;6.15;2.42;;;;;;;;;;5096733;28;20280;-76
2021/10/22 05:18:25;;;;;;;8.68;2.92;;;;;;;;;;5096683;28;20283;-77
2021/10/22 05:20:53;;;;;;;18.38;3.10;;;;;;;;;;5096602;28;20227;-77
2021/10/22 05:23:20;;;;;;;4.55;2.10;;;;;;;;;;5096782;28;20199;-76
2021/10/22 05:25:48;;;;;;;16.52;3.03;;;;;;;;;;5095764;28;20697;-77
2021/10/22 05:28:15;;;;;;;6.32;2.50;;;;;;;;;;5094713;28;20291;-77
2021/10/22 05:30:44;;;;;;;3.17;2.45;;;;;;;;;;5095412;28;20210;-75
2021/10/22 05:33:14;;;;;;;7.18;2.63;;;;;;;;;;5096266;28;20660;-77
2021/10/22 05:35:41;;;;;;;10.35;3.95;;;;;;;;;;5096759;28;20199;-79
2021/10/22 05:38:10;;;;;;;10.88;3.05;;;;;;;;;;5096978;28;20201;-79
2021/10/22 05:40:39;;;;;;;4.13;2.30;;;;;;;;;;5096674;28;20288;-78
2021/10/22 05:43:06;;;;;;;5.55;2.15;;;;;;;;;;5096506;28;20242;-78
2021/10/22 05:45:33;;;;;;;16.80;3.08;;;;;;;;;;5096436;28;20193;-79
2021/10/22 05:48:01;;;;;;;12.20;3.33;;;;;;;;;;5096741;28;20203;-80
2021/10/22 05:50:28;;;;;;;8.55;3.03;;;;;;;;;;5096209;28;20192;-78
2021/10/22 05:52:55;;;;;;;10.70;2.78;;;;;;;;;;5095404;28;20645;-78
2021/10/22 05:55:24;;;;;;;8.13;3.10;;;;;;;;;;5096138;28;20195;-78
2021/10/22 05:57:51;;;;;;;9.52;2.85;;;;;;;;;;5095876;28;20196;-77
2021/10/22 06:00:18;;;;;;;9.40;3.25;;;;;;;;;;5096237;28;20199;-78
2021/10/22 06:02:45;;;;;;;7.60;3.00;;;;;;;;;;5095752;28;20227;-78
2021/10/22 06:05:12;;;;;;;4.82;2.25;;;;;;;;;;5096629;28;20193;-78
2021/10/22 06:07:40;;;;;;;6.55;2.10;;;;;;;;;;5095627;28;20237;-78
2021/10/22 06:10:07;;;;;;;12.93;3.20;;;;;;;;;;5097817;28;20263;-80
2021/10/22 06:12:36;;;;;;;7.30;2.38;;;;;;;;;;5100586;28;20215;-80
2021/10/22 06:15:04;;;;;;;13.38;4.15;;;;;;;;;;5099499;28;20230;-77
2021/10/22 06:17:31;;;;;;;5.03;2.55;;;;;;;;;;5097944;28;20535;-77
2021/10/22 06:20:07;;;;;;;6.63;2.47;;;;;;;;;;5096274;28;20227;-77
2021/10/22 06:22:51;;;;;;;7.97;3.88;;;;;;;;;;5096351;28;20215;-79
2021/10/22 06:25:19;;;;;;;4.55;2.33;;;;;;;;;;5097380;28;20237;-78
2021/10/22 06:27:50;;;;;;;8.55;3.40;;;;;;;;;;5096143;28;20227;-77
2021/10/22 06:30:17;;;;;;;5.50;2.65;;;;;;;;;;5095883;28;20189;-77
2021/10/22 06:32:45;;;;;;;4.72;2.25;;;;;;;;;;5095538;28;20208;-77
2021/10/22 06:35:12;;;;;;;11.95;2.85;;;;;;;;;;5095418;28;20202;-78
2021/10/22 06:37:39;;;;;;;6.32;2.53;;;;;;;;;;5095825;28;20205;-79
2021/10/22 06:40:07;;;;;;;4.47;2.20;;;;;;;;;;5095460;28;20196;-77
2021/10/22 06:42:34;;;;;;;6.65;2.80;;;;;;;;;;5095343;28;20222;-76
2021/10/22 06:45:02;;;;;;;5.70;3.45;;;;;;;;;;5095020;28;20286;-79
2021/10/22 06:47:30;;;;;;;16.10;3.80;;;;;;;;;;5095340;28;20290;-78
2021/10/22 06:49:57;;;;;;;4.60;1.90;;;;;;;;;;5095258;28;20218;-76
2021/10/22 06:52:25;;;;;;;3.63;2.83;;;;;;;;;;5095647;28;20199;-77
2021/10/22 06:54:52;;;;;;;10.25;2.92;;;;;;;;;;5095166;28;20197;-78
2021/10/22 06:57:21;;;;;;;7.30;2.70;;;;;;;;;;5095046;28;20214;-75
2021/10/22 06:59:48;;;;;;;13.35;3.13;;;;;;;;;;5095334;28;20551;-78
2021/10/22 07:02:16;;;;;;;3.65;2.40;;;;;;;;;;5094935;28;20235;-78
2021/10/22 07:04:49;;;;;;;15.70;4.88;;;;;;;;;;5094800;28;20197;-76
2021/10/22 07:07:15;;;;;;;6.35;3.58;;;;;;;;;;5094859;28;20186;-78
2021/10/22 07:09:43;;;;;;;7.88;2.75;;;;;;;;;;5095078;28;20550;-78
2021/10/22 07:12:10;;;;;;;9.68;2.45;;;;;;;;;;5094456;28;20210;-77
2021/10/22 07:14:37;;;;;;;8.00;2.58;;;;;;;;;;5095004;28;20287;-77
2021/10/22 07:17:05;;;;;;;4.22;2.35;;;;;;;;;;5094743;28;20199;-77
2021/10/22 07:19:35;;;;;;;9.90;2.92;;;;;;;;;;5094353;28;20289;-77
2021/10/22 07:22:05;;;;;;;15.15;2.83;;;;;;;;;;5094454;28;20220;-77
2021/10/22 07:24:33;;;;;;;5.70;2.40;;;;;;;;;;5094487;28;20721;-79
2021/10/22 07:27:01;;;;;;;4.30;2.85;;;;;;;;;;5094918;28;20800;-77
2021/10/22 07:29:28;;;;;;;14.48;4.22;;;;;;;;;;5094168;28;20657;-77
2021/10/22 07:31:56;;;;;;;3.28;1.70;;;;;;;;;;5094183;28;20253;-78
2021/10/22 07:34:23;;;;;;;11.85;3.05;;;;;;;;;;5094062;28;20192;-77
2021/10/22 07:36:54;;;;;;;10.65;3.10;;;;;;;;;;5094228;28;20228;-78
2021/10/22 07:39:21;;;;;;;3.38;2.60;;;;;;;;;;5093910;28;20211;-77
2021/10/22 07:41:49;;;;;;;8.32;2.88;;;;;;;;;;5094167;28;20327;-77
2021/10/22 07:44:16;;;;;;;5.82;2.65;;;;;;;;;;5093852;28;20205;-78
2021/10/22 07:46:45;;;;;;;11.23;2.83;;;;;;;;;;5094094;28;20677;-80
2021/10/22 07:49:12;;;;;;;7.50;3.40;;;;;;;;;;5093801;28;20449;-78
2021/10/22 07:51:41;;;;;;;9.15;3.10;;;;;;;;;;5094105;28;20501;-78
2021/10/22 07:54:09;;;;;;;7.30;2.50;;;;;;;;;;5094070;28;20197;-78
2021/10/22 07:56:36;;;;;;;6.60;2.00;;;;;;;;;;5093715;28;20682;-77
2021/10/22 07:59:05;;;;;;;14.38;2.75;;;;;;;;;;5094016;28;20193;-76
2021/10/22 08:01:32;;;;;;;9.77;2.88;;;;;;;;;;5094577;28;20220;-75
2021/10/22 08:03:59;;;;;;;7.90;2.30;;;;;;;;;;5094254;28;20226;-75
2021/10/22 08:06:26;;;;;;;8.13;2.15;;;;;;;;;;5093550;28;20687;-74
2021/10/22 08:08:54;;;;;;;12.23;3.40;;;;;;;;;;5093624;28;20689;-76
2021/10/22 08:11:22;;;;;;;12.20;2.70;;;;;;;;;;5093798;28;20559;-76
2021/10/22 08:13:50;;;;;;;7.00;3.08;;;;;;;;;;5094451;28;20228;-76
2021/10/22 08:16:17;;;;;;;8.50;2.90;;;;;;;;;;5093192;28;20280;-76
2021/10/22 08:18:47;;;;;;;9.25;3.15;;;;;;;;;;5093768;28;20189;-77
2021/10/22 08:21:21;;;;;;;9.82;3.50;;;;;;;;;;5094226;28;20193;-77
2021/10/22 08:23:48;;;;;;;3.15;2.30;;;;;;;;;;5093522;28;20720;-78
2021/10/22 08:26:16;;;;;;;12.23;3.13;;;;;;;;;;5092987;28;20228;-78
2021/10/22 08:28:45;;;;;;;2.90;2.08;;;;;;;;;;5093291;28;20206;-77
2021/10/22 08:31:12;;;;;;;9.80;3.53;;;;;;;;;;5093472;28;20622;-77
2021/10/22 08:33:40;;;;;;;10.90;2.97;;;;;;;;;;5093475;28;20203;-77
2021/10/22 08:36:08;;;;;;;6.65;2.83;;;;;;;;;;5093668;28;20203;-76
2021/10/22 08:38:36;;;;;;;9.10;3.50;;;;;;;;;;5093919;28;20232;-78
2021/10/22 08:41:04;;;;;;;6.00;3.25;;;;;;;;;;5093445;28;20190;-77
2021/10/22 08:43:32;;;;;;;8.85;3.78;;;;;;;;;;5093517;28;20306;-78
2021/10/22 08:46:00;;;;;;;14.70;3.80;;;;;;;;;;5093895;28;20206;-78
2021/10/22 08:48:28;;;;;;;13.35;3.38;;;;;;;;;;5093348;28;20234;-76
2021/10/22 08:50:57;;;;;;;20.00;4.38;;;;;;;;;;5093372;28;20201;-77
2021/10/22 08:53:24;;;;;;;7.17;2.70;;;;;;;;;;5092965;28;20251;-78
2021/10/22 08:55:51;;;;;;;4.97;2.93;;;;;;;;;;5093381;28;20434;-77
2021/10/22 08:58:19;;;;;;;8.90;3.10;;;;;;;;;;5093039;28;20940;-78
2021/10/22 09:00:47;;;;;;;6.15;2.50;;;;;;;;;;5093356;28;20447;-77
2021/10/22 09:03:18;;;;;;;10.73;3.13;;;;;;;;;;5094041;28;20227;-77
2021/10/22 09:05:57;;;;;;;5.73;2.73;;;;;;;;;;5093894;28;20428;-75
2021/10/22 09:08:28;;;;;;;8.73;2.53;;;;;;;;;;5093404;28;20482;-77
2021/10/22 09:10:56;;;;;;;7.65;2.22;;;;;;;;;;5092980;28;20463;-76
2021/10/22 09:13:28;;;;;;;4.70;1.80;;;;;;;;;;5092823;28;20706;-79
2021/10/22 09:15:57;;;;;;;8.93;2.30;;;;;;;;;;5093742;28;20435;-77
2021/10/22 09:18:26;;;;;;;4.57;2.30;;;;;;;;;;5092822;28;20504;-76
2021/10/22 09:20:54;;;;;;;5.15;2.60;;;;;;;;;;5093034;28;20436;-76
2021/10/22 09:23:26;;;;;;;9.50;3.07;;;;;;;;;;5092710;28;20256;-77
2021/10/22 09:25:54;;;;;;;4.97;2.40;;;;;;;;;;5092904;28;20430;-75
2021/10/22 09:28:27;;;;;;;4.90;2.23;;;;;;;;;;5093634;28;20542;-79
2021/10/22 09:30:54;;;;;;;3.95;2.55;;;;;;;;;;5096463;28;20424;-78
2021/10/22 09:33:23;;;;;;;4.78;2.50;;;;;;;;;;5096727;28;20251;-82
2021/10/22 09:35:54;;;;;;;8.90;2.33;;;;;;;;;;5097263;28;20201;-79
2021/10/22 09:38:23;;;;;;;4.00;2.60;;;;;;;;;;5096416;28;20466;-75
2021/10/22 09:40:52;;;;;;;6.77;2.63;;;;;;;;;;5096680;28;20444;-77
2021/10/22 09:43:24;;;;;;;5.00;2.23;;;;;;;;;;5096149;28;20532;-77
2021/10/22 09:45:52;;;;;;;5.70;2.33;;;;;;;;;;5096212;28;20431;-76
2021/10/22 09:48:24;;;;;;;6.33;2.10;;;;;;;;;;5096354;28;20440;-77
2021/10/22 09:50:52;;;;;;;3.70;2.30;;;;;;;;;;5096331;28;20504;-79
2021/10/22 09:53:27;;;;;;;15.00;4.20;;;;;;;;;;5096313;28;20205;-79
2021/10/22 09:56:05;;;;;;;3.05;1.73;;;;;;;;;;5096228;28;20534;-79
2021/10/22 09:58:32;;;;;;;4.43;2.80;;;;;;;;;;5096455;28;20200;-78
2021/10/22 10:01:12;;;;;;;4.93;2.77;;;;;;;;;;5096398;28;20459;-79
2021/10/22 10:03:41;;;;;;;4.40;1.90;;;;;;;;;;5096132;28;20566;-79
2021/10/22 10:06:09;;;;;;;6.37;2.50;;;;;;;;;;5096282;28;20439;-78
2021/10/22 10:08:37;;;;;;;11.77;2.50;;;;;;;;;;5096165;28;20471;-76
2021/10/22 10:11:05;;;;;;;16.52;3.65;;;;;;;;;;5095951;28;20521;-77
2021/10/22 10:13:34;;;;;;;5.67;2.57;;;;;;;;;;5095922;28;20283;-79
2021/10/22 10:16:02;;;;;;;11.63;3.30;;;;;;;;;;5096570;28;20444;-78
2021/10/22 10:18:30;;;;;;;6.73;2.43;;;;;;;;;;5096053;28;20543;-78
2021/10/22 10:20:58;;;;;;;10.43;3.20;;;;;;;;;;5096597;28;20438;-77
2021/10/22 10:23:27;;;;;;;3.23;2.50;;;;;;;;;;5098706;28;20481;-80
2021/10/22 10:25:55;;;;;;;9.10;2.40;;;;;;;;;;5096699;28;20435;-79
2021/10/22 10:28:37;;;;;;;8.57;2.87;;;;;;;;;;5096531;28;20440;-78
2021/10/22 10:31:27;;;;;;;3.93;2.17;;;;;;;;;;5095822;28;20931;-77
2021/10/22 10:33:55;;;;;;;4.90;2.23;;;;;;;;;;5097525;28;20443;-78
2021/10/22 10:36:37;;;;;;;15.40;2.43;;;;;;;;;;5096542;28;20447;-79
2021/10/22 10:39:05;;;;;;;17.43;4.17;;;;;;;;;;5096361;28;20904;-77
2021/10/22 10:41:35;;;;;;;3.50;2.40;;;;;;;;;;5097068;28;20439;-75
2021/10/22 10:44:18;;;;;;;6.90;2.63;;;;;;;;;;5097981;28;20566;-76
2021/10/22 10:46:45;;;;;;;5.00;2.60;;;;;;;;;;5097629;28;20522;-77
2021/10/22 10:49:12;;;;;;;7.60;2.57;;;;;;;;;;5098075;28;20447;-76
2021/10/22 10:51:40;;;;;;;4.90;2.67;;;;;;;;;;5097555;28;20438;-77
2021/10/22 10:54:09;;;;;;;10.80;3.00;;;;;;;;;;5097339;28;20454;-78
2021/10/22 10:56:38;;;;;;;5.80;2.10;;;;;;;;;;5097115;28;20462;-77
2021/10/22 10:59:05;;;;;;;4.90;3.00;;;;;;;;;;5096434;28;20478;-77
2021/10/22 11:01:34;;;;;;;4.70;2.53;;;;;;;;;;5095865;28;20438;-77
2021/10/22 11:04:02;;;;;;;14.63;3.20;;;;;;;;;;5095547;28;20472;-77
2021/10/22 11:06:35;;;;;;;11.57;2.70;;;;;;;;;;5096082;28;20872;-76
2021/10/22 11:09:04;;;;;;;8.07;2.90;;;;;;;;;;5095784;28;20562;-75
2021/10/22 11:11:36;;;;;;;9.13;3.17;;;;;;;;;;5095434;28;20439;-77
2021/10/22 11:14:14;;;;;;;6.20;2.90;;;;;;;;;;5096332;28;20446;-77
2021/10/22 11:16:46;;;;;;;3.83;2.37;;;;;;;;;;5095941;28;20432;-75
2021/10/22 11:19:15;;;;;;;7.27;2.97;;;;;;;;;;5095775;28;20495;-76
2021/10/22 11:21:45;;;;;;;11.53;4.87;;;;;;;;;;5095097;28;20446;-77
2021/10/22 11:24:15;;;;;;;7.87;3.07;;;;;;;;;;5095030;28;21029;-77
2021/10/22 11:26:44;;;;;;;4.20;2.53;;;;;;;;;;5097824;28;20508;-76
2021/10/22 11:29:15;;;;;;;4.83;2.30;;;;;;;;;;5097875;28;20442;-76
2021/10/22 11:31:44;;;;;;;12.43;2.73;;;;;;;;;;5102512;28;20441;-77
2021/10/22 11:34:14;;;;;;;4.20;2.40;;;;;;;;;;5098145;28;20443;-75
2021/10/22 11:36:41;;;;;;;10.87;2.43;;;;;;;;;;5095562;28;20542;-77
2021/10/22 11:39:18;;;;;;;6.27;2.90;;;;;;;;;;5096965;28;20448;-77
2021/10/22 11:41:47;;;;;;;9.03;3.13;;;;;;;;;;5100555;28;20515;-76
2021/10/22 11:44:14;;;;;;;10.30;2.60;;;;;;;;;;5098499;28;20509;-77
2021/10/22 11:46:42;;;;;;;3.43;2.20;;;;;;;;;;5094685;28;20977;-78
2021/10/22 11:49:10;;;;;;;4.10;2.43;;;;;;;;;;5093862;28;20447;-76
2021/10/22 11:51:37;;;;;;;6.60;3.60;;;;;;;;;;5093794;28;20442;-76
2021/10/22 11:54:05;;;;;;;9.07;3.03;;;;;;;;;;5094230;28;20471;-74
2021/10/22 11:56:34;;;;;;;7.40;3.00;;;;;;;;;;5094122;28;20925;-73
2021/10/22 11:59:03;;;;;;;7.80;3.40;;;;;;;;;;5093714;28;20929;-75
2021/10/22 12:01:30;;;;;;;9.23;3.00;;;;;;;;;;5093694;28;20479;-74
2021/10/22 12:04:07;;;;;;;6.77;3.17;;;;;;;;;;5093926;28;20471;-73
2021/10/22 12:06:34;;;;;;;6.40;2.93;;;;;;;;;;5094748;28;20431;-73
2021/10/22 12:09:03;;;;;;;4.43;1.87;;;;;;;;;;5093618;28;20503;-74
2021/10/22 12:11:30;;;;;;;11.10;2.03;;;;;;;;;;5093790;28;20443;-74
2021/10/22 12:13:58;;;;;;;4.93;2.20;;;;;;;;;;5093293;28;20505;-74
2021/10/22 12:16:30;;;;;;;5.80;1.97;;;;;;;;;;5093304;28;20455;-74
2021/10/22 12:18:58;;;;;;;5.87;2.17;;;;;;;;;;5092936;28;20420;-74
2021/10/22 12:21:26;;;;;;;6.80;2.27;;;;;;;;;;5092987;28;20448;-73
2021/10/22 12:23:56;;;;;;;4.43;2.23;;;;;;;;;;5092625;28;20467;-73
2021/10/22 12:26:24;;;;;;;2.73;2.10;;;;;;;;;;5092615;28;20534;-73
2021/10/22 12:28:59;;;;;;;8.47;2.80;;;;;;;;;;5092555;28;20460;-72
2021/10/22 12:31:32;;;;;;;11.00;2.63;;;;;;;;;;5093065;28;20854;-74
2021/10/22 12:34:04;;;;;;;5.10;2.47;;;;;;;;;;5093002;28;20443;-73
2021/10/22 12:36:32;;;;;;;3.60;1.87;;;;;;;;;;5092915;28;20420;-72
2021/10/22 12:38:59;;;;;;;4.40;2.03;;;;;;;;;;5093399;28;20448;-73
2021/10/22 12:41:28;;;;;;;5.90;1.90;;;;;;;;;;5093457;28;20450;-74
2021/10/22 12:44:10;;;;;;;5.00;2.03;;;;;;;;;;5092525;28;20471;-75
2021/10/22 12:46:51;;;;;;;3.97;2.20;;;;;;;;;;5093039;28;20963;-74
2021/10/22 12:49:24;;;;;;;4.00;3.57;;;;;;;;;;5094259;28;20503;-73
2021/10/22 12:51:55;;;;;;;6.50;2.83;;;;;;;;;;5093796;28;20427;-73
2021/10/22 12:54:23;;;;;;;8.40;2.80;;;;;;;;;;5092949;28;20439;-74
2021/10/22 12:56:55;;;;;;;4.20;2.53;;;;;;;;;;5093157;28;20785;-71
2021/10/22 12:59:24;;;;;;;7.30;2.37;;;;;;;;;;5093577;28;20446;-71
2021/10/22 13:01:53;;;;;;;9.37;2.53;;;;;;;;;;5092886;28;20436;-72
2021/10/22 13:04:22;;;;;;;4.40;2.83;;;;;;;;;;5096390;28;20478;-70
2021/10/22 13:06:55;;;;;;;3.20;1.70;;;;;;;;;;5097198;28;20486;-69
2021/10/22 13:15:27;;;;;;;5.93;2.50;;;;;;;;;;5096482;28;20416;-69
2021/10/22 13:20:43;;;;;;;3.77;2.93;;;;;;;;;;5097005;28;20428;-69
2021/10/22 13:23:13;;;;;;;6.27;3.10;;;;;;;;;;5096910;28;20439;-72
2021/10/22 13:25:41;;;;;;;7.27;3.30;;;;;;;;;;5096545;28;20960;-69
2021/10/22 13:28:10;;;;;;;7.07;3.60;;;;;;;;;;5096665;28;20435;-70
2021/10/22 13:30:45;;;;;;;9.73;3.17;;;;;;;;;;5096521;28;20904;-70
2021/10/22 13:33:16;;;;;;;5.57;2.77;;;;;;;;;;5096825;28;20843;-71
2021/10/22 13:35:44;;;;;;;6.40;2.80;;;;;;;;;;5095888;28;20427;-70
2021/10/22 13:38:11;;;;;;;3.63;2.63;;;;;;;;;;5096238;28;20500;-71
2021/10/22 13:40:38;;;;;;;6.30;2.58;;;;;;;;;;5096293;28;20288;-70
2021/10/22 13:43:07;;;;;;;5.50;2.03;;;;;;;;;;5096819;28;20196;-70
2021/10/22 13:45:35;;;;;;;1.80;1.63;;;;;;;;;;5096860;28;20441;-70
2021/10/22 13:48:02;;;;;;;5.03;2.00;;;;;;;;;;5096487;28;20193;-70
2021/10/22 13:50:30;;;;;;;4.57;1.50;;;;;;;;;;5096143;28;20432;-69
2021/10/22 13:52:58;;;;;;;3.83;1.63;;;;;;;;;;5096320;28;20489;-69
2021/10/22 13:55:25;;;;;;;3.93;1.83;;;;;;;;;;5095995;28;20935;-69
2021/10/22 13:57:52;;;;;;;1.43;1.33;;;;;;;;;;5095971;28;20445;-70
2021/10/22 14:00:20;;;;;;;2.10;1.50;;;;;;;;;;5096508;28;20870;-70
2021/10/22 14:02:47;;;;;;;4.83;1.60;;;;;;;;;;5096160;28;20590;-70
2021/10/22 14:05:15;;;;;;;2.30;1.90;;;;;;;;;;5096227;28;20503;-70
2021/10/22 14:07:43;;;;;;;2.97;1.63;;;;;;;;;;5095936;28;20562;-70
2021/10/22 14:10:11;;;;;;;2.43;1.70;;;;;;;;;;5095585;28;20435;-70
2021/10/22 14:12:41;;;;;;;3.25;2.05;;;;;;;;;;5096451;28;20794;-70
2021/10/22 14:15:15;;;;;;;3.37;1.80;;;;;;;;;;5095118;28;20197;-70
2021/10/22 14:29:05;;;;;;;1.93;1.30;;;;;;;;;;5095758;28;20474;-70
2021/10/22 14:31:35;;;;;;;1.60;1.50;;;;;;;;;;5096322;28;20435;-70
2021/10/22 14:34:03;;;;;;;1.93;1.37;;;;;;;;;;5095657;28;20464;-70
2021/10/22 14:36:30;;;;;;;1.58;1.35;;;;;;;;;;5095221;28;20513;-70
2021/10/22 14:38:58;;;;;;;3.80;1.35;;;;;;;;;;5095055;28;20193;-70
2021/10/22 14:41:27;;;;;;;1.63;1.53;;;;;;;;;;5095070;28;20196;-70
2021/10/22 14:43:55;;;;;;;2.17;1.13;;;;;;;;;;5095129;28;20502;-71
2021/10/22 14:46:29;;;;;;;9.03;2.10;;;;;;;;;;5095389;28;20920;-70
2021/10/22 14:49:02;;;;;;;2.67;1.70;;;;;;;;;;5095256;28;20447;-69
2021/10/22 14:51:42;;;;;;;5.87;1.60;;;;;;;;;;5094960;28;20428;-70
2021/10/22 14:54:13;;;;;;;5.43;2.17;;;;;;;;;;5095161;28;20526;-70
2021/10/22 14:56:40;;;;;;;1.80;1.70;;;;;;;;;;5095637;28;20428;-70
2021/10/22 14:59:09;;;;;;;2.20;2.00;;;;;;;;;;5095143;28;20198;-70
2021/10/22 15:01:37;;;;;;;4.83;2.00;;;;;;;;;;5095477;28;20455;-70
2021/10/22 15:04:05;;;;;;;2.20;1.37;;;;;;;;;;5095050;28;20483;-70
2021/10/22 15:06:32;;;;;;;9.43;3.10;;;;;;;;;;5094790;28;20436;-71
2021/10/22 15:09:00;;;;;;;2.40;1.43;;;;;;;;;;5095054;28;20467;-70